Antonio B. Won Pat International Airport
PGUM : now visible

Aeroporto :











RITROVATECI SU...

 
LOGIN :

Iscrizione | Disclaimer

   EN    FR    IT 

 









Sommario :    VFR   VFR Marginale   IFR   IFR Intensivo   IFR Molto Intensivo
Visibilità : 
Base nubi : 
>= 8 km
>= 3000ft
5 / 8 km
1000 / 3000 ft
1500m / 5 km
500 / 1000 ft
800 / 1500m
200 / 500 ft
< 800m
< 200 ft
Simboli :   Temporali  Nebbia  Neve Forte  Precipitazioni Forti  Vento > 20 kt






- Altitudine del aeroporto : 298 ft
- Codice IATA : GUM


PGUM - Antonio B. Won Pat International

ULTIMO METAR :
  • 040308Z 07014G19KT 10SM SCT018 SCT026 BKN038 32/24 A2982 RMK AO2 T03170244

METARs OBSOLETI :
  • 040254Z 07014KT 10SM SCT018 BKN024 BKN038 31/24 A2982 RMK AO2 SLP089 T03110244 56010
  • 040154Z 09011KT 10SM FEW022 FEW030 30/24 A2984 RMK AO2 SLP097 T03000244
  • 040054Z 09012KT 10SM FEW022 SCT030 30/24 A2985 RMK AO2 SLP099 T03000244

TAF PGUM
Valido dal 04 a 00 ore il 05 a 06 ore UTC


032320Z 0400/0506 08014KT P6SM VCSH SCT025 SCT040
FM040900 09009KT P6SM VCSH SCT024
FIR PGZU / Oceania



MetMap, La meteo Aeronautica in un colpo d'occhio ! - Copyright ORBIFLY Dicembre 2007 - Disclaimer

ORBIFLY MET'MAP TEAM :

Programmazione e sviluppo : Alexandra Zaïnal
Concezione : Baudouin d'Aumeries
Aiuto per la programmazione : Marc-Olivier Méhu
Supporto tecnico e logistico : Manuel Goepfert
Aiuto per la traduzione : Arnaldo La Scala

Contatto : metmap@orbifly.com




FONTI E CREDITI :

   NOAA       Earth
Advisory